sensor_id;sensor_type;location;lat;lon;timestamp;temperature;humidity
9951;DHT22;24074;49.254;6.702;2023-09-19T00:00:01;16.10;99.90
9951;DHT22;24074;49.254;6.702;2023-09-19T00:02:27;16.10;99.90
9951;DHT22;24074;49.254;6.702;2023-09-19T00:04:52;16.10;99.90
9951;DHT22;24074;49.254;6.702;2023-09-19T00:07:19;16.10;99.90
9951;DHT22;24074;49.254;6.702;2023-09-19T00:09:44;16.00;99.90
9951;DHT22;24074;49.254;6.702;2023-09-19T00:12:10;16.00;99.90
9951;DHT22;24074;49.254;6.702;2023-09-19T00:14:35;16.00;99.90
9951;DHT22;24074;49.254;6.702;2023-09-19T00:17:02;15.90;99.90
9951;DHT22;24074;49.254;6.702;2023-09-19T00:19:35;15.90;99.90
9951;DHT22;24074;49.254;6.702;2023-09-19T00:22:01;15.90;99.90
9951;DHT22;24074;49.254;6.702;2023-09-19T00:24:27;15.80;99.90
9951;DHT22;24074;49.254;6.702;2023-09-19T00:26:53;15.70;99.90
9951;DHT22;24074;49.254;6.702;2023-09-19T00:29:21;15.70;99.90
9951;DHT22;24074;49.254;6.702;2023-09-19T00:31:46;15.70;99.90
9951;DHT22;24074;49.254;6.702;2023-09-19T00:34:12;15.60;99.90
9951;DHT22;24074;49.254;6.702;2023-09-19T00:36:38;15.50;99.90
9951;DHT22;24074;49.254;6.702;2023-09-19T00:39:08;15.40;99.90
9951;DHT22;24074;49.254;6.702;2023-09-19T00:41:34;15.30;99.90
9951;DHT22;24074;49.254;6.702;2023-09-19T00:44:02;15.30;99.90
9951;DHT22;24074;49.254;6.702;2023-09-19T00:46:30;15.30;99.90
9951;DHT22;24074;49.254;6.702;2023-09-19T00:48:56;15.30;99.90
9951;DHT22;24074;49.254;6.702;2023-09-19T00:51:22;15.40;99.90
9951;DHT22;24074;49.254;6.702;2023-09-19T00:53:51;15.30;99.90
9951;DHT22;24074;49.254;6.702;2023-09-19T00:56:18;15.30;99.90
9951;DHT22;24074;49.254;6.702;2023-09-19T00:58:45;15.30;99.90
9951;DHT22;24074;49.254;6.702;2023-09-19T01:01:12;15.40;99.90
9951;DHT22;24074;49.254;6.702;2023-09-19T01:03:40;15.40;99.90
9951;DHT22;24074;49.254;6.702;2023-09-19T01:06:06;15.50;99.90
9951;DHT22;24074;49.254;6.702;2023-09-19T01:08:33;15.40;99.90
9951;DHT22;24074;49.254;6.702;2023-09-19T01:14:14;15.50;99.90
9951;DHT22;24074;49.254;6.702;2023-09-19T01:17:00;15.50;99.90
9951;DHT22;24074;49.254;6.702;2023-09-19T01:28:13;15.20;99.90
9951;DHT22;24074;49.254;6.702;2023-09-19T01:30:43;15.10;99.90
9951;DHT22;24074;49.254;6.702;2023-09-19T01:33:09;15.10;99.90
9951;DHT22;24074;49.254;6.702;2023-09-19T01:35:39;15.10;99.90
9951;DHT22;24074;49.254;6.702;2023-09-19T01:38:06;15.00;99.90
9951;DHT22;24074;49.254;6.702;2023-09-19T01:40:42;14.80;99.90
9951;DHT22;24074;49.254;6.702;2023-09-19T01:43:20;14.80;99.90
9951;DHT22;24074;49.254;6.702;2023-09-19T01:46:08;14.80;99.90
9951;DHT22;24074;49.254;6.702;2023-09-19T01:51:46;14.70;99.90
9951;DHT22;24074;49.254;6.702;2023-09-19T01:54:21;14.70;99.90
9951;DHT22;24074;49.254;6.702;2023-09-19T02:00:03;14.60;99.90
9951;DHT22;24074;49.254;6.702;2023-09-19T02:02:36;14.60;99.90
9951;DHT22;24074;49.254;6.702;2023-09-19T02:05:03;14.50;99.90
9951;DHT22;24074;49.254;6.702;2023-09-19T02:07:29;14.60;99.90
9951;DHT22;24074;49.254;6.702;2023-09-19T02:09:57;14.50;99.90
9951;DHT22;24074;49.254;6.702;2023-09-19T02:12:24;14.60;99.90
9951;DHT22;24074;49.254;6.702;2023-09-19T02:14:50;14.50;99.90
9951;DHT22;24074;49.254;6.702;2023-09-19T02:17:15;14.40;99.90
9951;DHT22;24074;49.254;6.702;2023-09-19T02:19:42;14.40;99.90
9951;DHT22;24074;49.254;6.702;2023-09-19T02:22:08;14.30;99.90
9951;DHT22;24074;49.254;6.702;2023-09-19T02:24:38;14.40;99.90
9951;DHT22;24074;49.254;6.702;2023-09-19T02:27:04;14.50;99.90
9951;DHT22;24074;49.254;6.702;2023-09-19T02:29:31;14.60;99.90
9951;DHT22;24074;49.254;6.702;2023-09-19T02:31:56;14.50;99.90
9951;DHT22;24074;49.254;6.702;2023-09-19T02:34:22;14.60;99.90
9951;DHT22;24074;49.254;6.702;2023-09-19T02:36:48;14.50;99.90
9951;DHT22;24074;49.254;6.702;2023-09-19T02:39:14;14.40;99.90
9951;DHT22;24074;49.254;6.702;2023-09-19T02:41:39;14.30;99.90
9951;DHT22;24074;49.254;6.702;2023-09-19T02:44:07;14.30;99.90
9951;DHT22;24074;49.254;6.702;2023-09-19T02:46:35;14.30;99.90
9951;DHT22;24074;49.254;6.702;2023-09-19T02:49:02;14.20;99.90
9951;DHT22;24074;49.254;6.702;2023-09-19T02:51:30;14.20;99.90
9951;DHT22;24074;49.254;6.702;2023-09-19T02:53:56;14.30;99.90
9951;DHT22;24074;49.254;6.702;2023-09-19T02:56:22;14.30;99.90
9951;DHT22;24074;49.254;6.702;2023-09-19T02:58:48;14.40;99.90
9951;DHT22;24074;49.254;6.702;2023-09-19T03:01:13;14.40;99.90
9951;DHT22;24074;49.254;6.702;2023-09-19T03:03:40;14.30;99.90
9951;DHT22;24074;49.254;6.702;2023-09-19T03:06:06;14.20;99.90
9951;DHT22;24074;49.254;6.702;2023-09-19T03:08:33;14.10;99.90
9951;DHT22;24074;49.254;6.702;2023-09-19T03:11:01;14.00;99.90
9951;DHT22;24074;49.254;6.702;2023-09-19T03:13:30;14.00;99.90
9951;DHT22;24074;49.254;6.702;2023-09-19T03:15:56;14.10;99.90
9951;DHT22;24074;49.254;6.702;2023-09-19T03:18:24;14.20;99.90
9951;DHT22;24074;49.254;6.702;2023-09-19T03:20:55;14.30;99.90
9951;DHT22;24074;49.254;6.702;2023-09-19T03:23:21;14.20;99.90
9951;DHT22;24074;49.254;6.702;2023-09-19T03:25:47;14.20;99.90
9951;DHT22;24074;49.254;6.702;2023-09-19T03:28:13;14.20;99.90
9951;DHT22;24074;49.254;6.702;2023-09-19T03:30:40;14.20;99.90
9951;DHT22;24074;49.254;6.702;2023-09-19T03:33:06;14.20;99.90
9951;DHT22;24074;49.254;6.702;2023-09-19T03:35:32;14.20;99.90
9951;DHT22;24074;49.254;6.702;2023-09-19T03:37:57;14.30;99.90
9951;DHT22;24074;49.254;6.702;2023-09-19T03:40:23;14.30;99.90
9951;DHT22;24074;49.254;6.702;2023-09-19T03:42:50;14.30;99.90
9951;DHT22;24074;49.254;6.702;2023-09-19T03:45:16;14.30;99.90
9951;DHT22;24074;49.254;6.702;2023-09-19T03:47:43;14.30;99.90
9951;DHT22;24074;49.254;6.702;2023-09-19T03:50:09;14.40;99.90
9951;DHT22;24074;49.254;6.702;2023-09-19T03:52:40;14.40;99.90
9951;DHT22;24074;49.254;6.702;2023-09-19T03:55:06;14.40;99.90
9951;DHT22;24074;49.254;6.702;2023-09-19T03:57:32;14.40;99.90
9951;DHT22;24074;49.254;6.702;2023-09-19T03:59:57;14.50;99.90
9951;DHT22;24074;49.254;6.702;2023-09-19T04:02:23;14.50;99.90
9951;DHT22;24074;49.254;6.702;2023-09-19T04:04:50;14.50;99.90
9951;DHT22;24074;49.254;6.702;2023-09-19T04:07:16;14.40;99.90
9951;DHT22;24074;49.254;6.702;2023-09-19T04:09:42;14.50;99.90
9951;DHT22;24074;49.254;6.702;2023-09-19T04:12:07;14.50;99.90
9951;DHT22;24074;49.254;6.702;2023-09-19T04:14:36;14.50;99.90
9951;DHT22;24074;49.254;6.702;2023-09-19T04:17:02;14.50;99.90
9951;DHT22;24074;49.254;6.702;2023-09-19T04:19:28;14.50;99.90
9951;DHT22;24074;49.254;6.702;2023-09-19T04:21:53;14.40;99.90
9951;DHT22;24074;49.254;6.702;2023-09-19T04:24:19;14.40;99.90
9951;DHT22;24074;49.254;6.702;2023-09-19T04:26:45;14.40;99.90
9951;DHT22;24074;49.254;6.702;2023-09-19T04:29:10;14.30;99.90
9951;DHT22;24074;49.254;6.702;2023-09-19T04:31:39;14.30;99.90
9951;DHT22;24074;49.254;6.702;2023-09-19T04:34:08;14.30;99.90
9951;DHT22;24074;49.254;6.702;2023-09-19T04:36:34;14.20;99.90
9951;DHT22;24074;49.254;6.702;2023-09-19T04:39:05;14.20;99.90
9951;DHT22;24074;49.254;6.702;2023-09-19T04:41:30;14.20;99.90
9951;DHT22;24074;49.254;6.702;2023-09-19T04:43:57;14.10;99.90
9951;DHT22;24074;49.254;6.702;2023-09-19T04:46:23;14.10;99.90
9951;DHT22;24074;49.254;6.702;2023-09-19T04:48:49;14.00;99.90
9951;DHT22;24074;49.254;6.702;2023-09-19T04:51:14;14.00;99.90
9951;DHT22;24074;49.254;6.702;2023-09-19T04:53:40;13.90;99.90
9951;DHT22;24074;49.254;6.702;2023-09-19T04:56:06;13.90;99.90
9951;DHT22;24074;49.254;6.702;2023-09-19T04:58:33;14.00;99.90
9951;DHT22;24074;49.254;6.702;2023-09-19T05:00:59;14.00;99.90
9951;DHT22;24074;49.254;6.702;2023-09-19T05:03:25;14.00;99.90
9951;DHT22;24074;49.254;6.702;2023-09-19T05:05:50;14.10;99.90
9951;DHT22;24074;49.254;6.702;2023-09-19T05:08:16;14.10;99.90
9951;DHT22;24074;49.254;6.702;2023-09-19T05:10:41;14.10;99.90
9951;DHT22;24074;49.254;6.702;2023-09-19T05:13:07;14.20;99.90
9951;DHT22;24074;49.254;6.702;2023-09-19T05:15:33;14.10;99.90
9951;DHT22;24074;49.254;6.702;2023-09-19T05:17:59;14.10;99.90
9951;DHT22;24074;49.254;6.702;2023-09-19T05:20:25;14.10;99.90
9951;DHT22;24074;49.254;6.702;2023-09-19T05:25:37;14.10;99.90
9951;DHT22;24074;49.254;6.702;2023-09-19T05:28:03;14.10;99.90
9951;DHT22;24074;49.254;6.702;2023-09-19T05:30:32;14.20;99.90
9951;DHT22;24074;49.254;6.702;2023-09-19T05:32:58;14.20;99.90
9951;DHT22;24074;49.254;6.702;2023-09-19T05:35:24;14.20;99.90
9951;DHT22;24074;49.254;6.702;2023-09-19T05:37:51;14.20;99.90
9951;DHT22;24074;49.254;6.702;2023-09-19T05:40:20;14.10;99.90
9951;DHT22;24074;49.254;6.702;2023-09-19T05:42:46;14.20;99.90
9951;DHT22;24074;49.254;6.702;2023-09-19T05:45:13;14.20;99.90
9951;DHT22;24074;49.254;6.702;2023-09-19T05:47:41;14.20;99.90
9951;DHT22;24074;49.254;6.702;2023-09-19T05:50:09;14.20;99.90
9951;DHT22;24074;49.254;6.702;2023-09-19T05:52:35;14.20;99.90
9951;DHT22;24074;49.254;6.702;2023-09-19T05:55:06;14.10;99.90
9951;DHT22;24074;49.254;6.702;2023-09-19T05:57:32;14.20;99.90
9951;DHT22;24074;49.254;6.702;2023-09-19T05:59:58;14.20;99.90
9951;DHT22;24074;49.254;6.702;2023-09-19T06:02:23;14.20;99.90
9951;DHT22;24074;49.254;6.702;2023-09-19T06:04:52;14.20;99.90
9951;DHT22;24074;49.254;6.702;2023-09-19T06:07:18;14.20;99.90
9951;DHT22;24074;49.254;6.702;2023-09-19T06:09:44;14.30;99.90
9951;DHT22;24074;49.254;6.702;2023-09-19T06:12:09;14.30;99.90
9951;DHT22;24074;49.254;6.702;2023-09-19T06:14:35;14.40;99.90
9951;DHT22;24074;49.254;6.702;2023-09-19T06:17:00;14.40;99.90
9951;DHT22;24074;49.254;6.702;2023-09-19T06:19:26;14.50;99.90
9951;DHT22;24074;49.254;6.702;2023-09-19T06:21:52;14.60;99.90
9951;DHT22;24074;49.254;6.702;2023-09-19T06:24:19;14.60;99.90
9951;DHT22;24074;49.254;6.702;2023-09-19T06:26:45;14.80;99.90
9951;DHT22;24074;49.254;6.702;2023-09-19T06:29:10;14.80;99.90
9951;DHT22;24074;49.254;6.702;2023-09-19T06:31:38;14.80;99.90
9951;DHT22;24074;49.254;6.702;2023-09-19T06:34:04;14.90;99.90
9951;DHT22;24074;49.254;6.702;2023-09-19T06:36:30;15.10;99.90
9951;DHT22;24074;49.254;6.702;2023-09-19T06:38:55;15.20;99.90
9951;DHT22;24074;49.254;6.702;2023-09-19T06:41:21;15.30;99.90
9951;DHT22;24074;49.254;6.702;2023-09-19T06:43:50;15.50;99.90
9951;DHT22;24074;49.254;6.702;2023-09-19T06:46:18;15.80;99.90
9951;DHT22;24074;49.254;6.702;2023-09-19T06:48:44;15.90;99.90
9951;DHT22;24074;49.254;6.702;2023-09-19T06:51:12;16.10;99.90
9951;DHT22;24074;49.254;6.702;2023-09-19T06:53:41;16.20;99.90
9951;DHT22;24074;49.254;6.702;2023-09-19T06:56:06;16.40;99.90
9951;DHT22;24074;49.254;6.702;2023-09-19T06:58:32;16.70;99.90
9951;DHT22;24074;49.254;6.702;2023-09-19T07:00:58;16.90;99.90
9951;DHT22;24074;49.254;6.702;2023-09-19T07:03:26;17.60;99.90
9951;DHT22;24074;49.254;6.702;2023-09-19T07:05:54;18.70;99.90
9951;DHT22;24074;49.254;6.702;2023-09-19T07:08:21;19.70;99.90
9951;DHT22;24074;49.254;6.702;2023-09-19T07:10:47;20.40;99.90
9951;DHT22;24074;49.254;6.702;2023-09-19T07:13:18;20.60;99.90
9951;DHT22;24074;49.254;6.702;2023-09-19T07:15:44;20.70;99.90
9951;DHT22;24074;49.254;6.702;2023-09-19T07:18:13;21.10;99.90
9951;DHT22;24074;49.254;6.702;2023-09-19T07:20:40;21.50;99.90
9951;DHT22;24074;49.254;6.702;2023-09-19T07:23:18;22.40;99.90
9951;DHT22;24074;49.254;6.702;2023-09-19T07:25:44;22.70;99.90
9951;DHT22;24074;49.254;6.702;2023-09-19T07:28:11;23.20;99.90
9951;DHT22;24074;49.254;6.702;2023-09-19T07:30:37;23.30;99.90
9951;DHT22;24074;49.254;6.702;2023-09-19T07:33:03;22.70;99.90
9951;DHT22;24074;49.254;6.702;2023-09-19T07:35:31;22.60;99.90
9951;DHT22;24074;49.254;6.702;2023-09-19T07:37:56;23.40;99.90
9951;DHT22;24074;49.254;6.702;2023-09-19T07:40:24;23.40;99.90
9951;DHT22;24074;49.254;6.702;2023-09-19T07:42:52;23.50;99.90
9951;DHT22;24074;49.254;6.702;2023-09-19T07:45:18;23.40;99.90
9951;DHT22;24074;49.254;6.702;2023-09-19T07:47:47;23.00;99.90
9951;DHT22;24074;49.254;6.702;2023-09-19T07:50:19;22.90;99.90
9951;DHT22;24074;49.254;6.702;2023-09-19T07:52:48;23.10;99.90
9951;DHT22;24074;49.254;6.702;2023-09-19T07:55:16;22.60;99.90
9951;DHT22;24074;49.254;6.702;2023-09-19T07:57:48;22.20;99.90
9951;DHT22;24074;49.254;6.702;2023-09-19T08:00:14;22.30;99.90
9951;DHT22;24074;49.254;6.702;2023-09-19T08:02:41;22.00;99.90
9951;DHT22;24074;49.254;6.702;2023-09-19T08:05:08;21.20;99.90
9951;DHT22;24074;49.254;6.702;2023-09-19T08:07:42;20.80;99.90
9951;DHT22;24074;49.254;6.702;2023-09-19T08:10:08;21.50;99.90
9951;DHT22;24074;49.254;6.702;2023-09-19T08:12:44;22.80;99.90
9951;DHT22;24074;49.254;6.702;2023-09-19T08:15:18;23.50;99.90
9951;DHT22;24074;49.254;6.702;2023-09-19T08:17:47;24.20;99.90
9951;DHT22;24074;49.254;6.702;2023-09-19T08:20:13;23.90;99.90
9951;DHT22;24074;49.254;6.702;2023-09-19T08:22:50;22.90;99.90
9951;DHT22;24074;49.254;6.702;2023-09-19T08:25:18;22.90;99.90
9951;DHT22;24074;49.254;6.702;2023-09-19T08:27:44;22.20;99.90
9951;DHT22;24074;49.254;6.702;2023-09-19T08:30:14;21.50;99.90
9951;DHT22;24074;49.254;6.702;2023-09-19T08:32:40;21.50;99.90
9951;DHT22;24074;49.254;6.702;2023-09-19T08:35:11;21.50;99.90
9951;DHT22;24074;49.254;6.702;2023-09-19T08:37:36;22.40;99.90
9951;DHT22;24074;49.254;6.702;2023-09-19T08:40:02;23.60;99.90
9951;DHT22;24074;49.254;6.702;2023-09-19T08:42:28;24.50;99.90
9951;DHT22;24074;49.254;6.702;2023-09-19T08:44:54;23.90;99.90
9951;DHT22;24074;49.254;6.702;2023-09-19T08:48:11;23.50;99.90
9951;DHT22;24074;49.254;6.702;2023-09-19T08:50:26;23.60;99.90
9951;DHT22;24074;49.254;6.702;2023-09-19T08:52:52;23.80;99.90
9951;DHT22;24074;49.254;6.702;2023-09-19T08:55:23;23.40;99.90
9951;DHT22;24074;49.254;6.702;2023-09-19T08:57:52;24.40;99.90
9951;DHT22;24074;49.254;6.702;2023-09-19T09:00:21;25.20;99.50
9951;DHT22;24074;49.254;6.702;2023-09-19T09:02:48;24.70;99.90
9951;DHT22;24074;49.254;6.702;2023-09-19T09:05:15;24.40;99.80
9951;DHT22;24074;49.254;6.702;2023-09-19T09:07:42;24.50;99.90
9951;DHT22;24074;49.254;6.702;2023-09-19T09:10:09;24.40;99.90
9951;DHT22;24074;49.254;6.702;2023-09-19T09:12:35;24.90;99.90
9951;DHT22;24074;49.254;6.702;2023-09-19T09:15:05;25.10;99.00
9951;DHT22;24074;49.254;6.702;2023-09-19T09:17:31;24.40;99.10
9951;DHT22;24074;49.254;6.702;2023-09-19T09:19:57;24.60;99.90
9951;DHT22;24074;49.254;6.702;2023-09-19T09:22:22;24.60;99.90
9951;DHT22;24074;49.254;6.702;2023-09-19T09:24:56;26.10;98.40
9951;DHT22;24074;49.254;6.702;2023-09-19T09:27:29;27.00;93.40
9951;DHT22;24074;49.254;6.702;2023-09-19T09:29:54;27.10;88.50
9951;DHT22;24074;49.254;6.702;2023-09-19T09:34:55;24.50;95.60
9951;DHT22;24074;49.254;6.702;2023-09-19T09:37:22;24.60;95.10
9951;DHT22;24074;49.254;6.702;2023-09-19T09:40:02;25.60;94.00
9951;DHT22;24074;49.254;6.702;2023-09-19T09:42:51;25.70;92.70
9951;DHT22;24074;49.254;6.702;2023-09-19T09:45:23;27.90;87.90
9951;DHT22;24074;49.254;6.702;2023-09-19T09:48:03;29.30;79.00
9951;DHT22;24074;49.254;6.702;2023-09-19T09:50:31;28.50;71.90
9951;DHT22;24074;49.254;6.702;2023-09-19T09:53:28;28.10;77.20
9951;DHT22;24074;49.254;6.702;2023-09-19T09:56:07;28.00;71.60
9951;DHT22;24074;49.254;6.702;2023-09-19T09:58:52;28.00;74.10
9951;DHT22;24074;49.254;6.702;2023-09-19T10:01:21;27.50;71.90
9951;DHT22;24074;49.254;6.702;2023-09-19T10:03:57;27.00;75.00
9951;DHT22;24074;49.254;6.702;2023-09-19T10:06:23;26.90;76.50
9951;DHT22;24074;49.254;6.702;2023-09-19T10:09:08;27.10;77.50
9951;DHT22;24074;49.254;6.702;2023-09-19T10:11:44;28.40;72.00
9951;DHT22;24074;49.254;6.702;2023-09-19T10:14:15;29.60;68.30
9951;DHT22;24074;49.254;6.702;2023-09-19T10:16:46;29.90;63.50
9951;DHT22;24074;49.254;6.702;2023-09-19T10:19:16;30.90;61.50
9951;DHT22;24074;49.254;6.702;2023-09-19T10:21:44;30.20;58.80
9951;DHT22;24074;49.254;6.702;2023-09-19T10:24:10;29.40;61.40
9951;DHT22;24074;49.254;6.702;2023-09-19T10:26:36;30.90;61.00
9951;DHT22;24074;49.254;6.702;2023-09-19T10:29:03;31.20;58.40
9951;DHT22;24074;49.254;6.702;2023-09-19T10:31:32;32.10;56.00
9951;DHT22;24074;49.254;6.702;2023-09-19T10:34:03;31.70;56.50
9951;DHT22;24074;49.254;6.702;2023-09-19T10:36:32;32.10;56.80
9951;DHT22;24074;49.254;6.702;2023-09-19T10:38:59;33.40;52.90
9951;DHT22;24074;49.254;6.702;2023-09-19T10:41:30;32.30;49.40
9951;DHT22;24074;49.254;6.702;2023-09-19T10:44:03;31.30;48.90
9951;DHT22;24074;49.254;6.702;2023-09-19T10:46:32;30.60;54.10
9951;DHT22;24074;49.254;6.702;2023-09-19T10:49:00;31.40;53.10
9951;DHT22;24074;49.254;6.702;2023-09-19T10:51:33;32.20;50.80
9951;DHT22;24074;49.254;6.702;2023-09-19T10:54:11;32.40;50.40
9951;DHT22;24074;49.254;6.702;2023-09-19T10:56:42;31.50;49.60
9951;DHT22;24074;49.254;6.702;2023-09-19T10:59:16;32.00;49.90
9951;DHT22;24074;49.254;6.702;2023-09-19T11:01:55;31.60;49.70
9951;DHT22;24074;49.254;6.702;2023-09-19T11:04:28;31.80;51.00
9951;DHT22;24074;49.254;6.702;2023-09-19T11:15:06;29.10;52.00
9951;DHT22;24074;49.254;6.702;2023-09-19T11:17:40;29.10;55.00
9951;DHT22;24074;49.254;6.702;2023-09-19T11:30:47;23.30;66.80
9951;DHT22;24074;49.254;6.702;2023-09-19T11:46:27;22.70;89.40
9951;DHT22;24074;49.254;6.702;2023-09-19T11:48:54;22.50;89.70
9951;DHT22;24074;49.254;6.702;2023-09-19T11:51:24;22.60;90.50
9951;DHT22;24074;49.254;6.702;2023-09-19T11:53:54;22.40;92.00
9951;DHT22;24074;49.254;6.702;2023-09-19T11:56:24;22.40;92.00
9951;DHT22;24074;49.254;6.702;2023-09-19T11:58:52;22.30;93.20
9951;DHT22;24074;49.254;6.702;2023-09-19T12:01:23;21.90;93.80
9951;DHT22;24074;49.254;6.702;2023-09-19T12:03:53;21.90;94.70
9951;DHT22;24074;49.254;6.702;2023-09-19T12:06:20;21.90;96.70
9951;DHT22;24074;49.254;6.702;2023-09-19T12:08:47;22.00;98.00
9951;DHT22;24074;49.254;6.702;2023-09-19T12:11:14;22.30;96.90
9951;DHT22;24074;49.254;6.702;2023-09-19T12:13:47;22.80;96.80
9951;DHT22;24074;49.254;6.702;2023-09-19T12:16:20;22.80;96.60
9951;DHT22;24074;49.254;6.702;2023-09-19T12:18:50;23.00;95.80
9951;DHT22;24074;49.254;6.702;2023-09-19T12:24:05;23.80;95.70
9951;DHT22;24074;49.254;6.702;2023-09-19T12:26:41;24.20;94.70
9951;DHT22;24074;49.254;6.702;2023-09-19T12:29:19;24.50;92.70
9951;DHT22;24074;49.254;6.702;2023-09-19T12:31:56;24.50;92.20
9951;DHT22;24074;49.254;6.702;2023-09-19T12:34:24;24.20;93.80
9951;DHT22;24074;49.254;6.702;2023-09-19T12:37:10;24.50;93.50
9951;DHT22;24074;49.254;6.702;2023-09-19T12:39:42;24.30;90.50
9951;DHT22;24074;49.254;6.702;2023-09-19T12:42:12;23.60;92.30
9951;DHT22;24074;49.254;6.702;2023-09-19T12:44:42;23.30;95.20
9951;DHT22;24074;49.254;6.702;2023-09-19T12:47:16;23.50;96.10
9951;DHT22;24074;49.254;6.702;2023-09-19T12:52:37;23.70;95.30
9951;DHT22;24074;49.254;6.702;2023-09-19T12:55:03;23.30;94.90
9951;DHT22;24074;49.254;6.702;2023-09-19T12:57:30;22.90;95.90
9951;DHT22;24074;49.254;6.702;2023-09-19T13:00:03;22.80;96.50
9951;DHT22;24074;49.254;6.702;2023-09-19T13:02:31;22.60;98.40
9951;DHT22;24074;49.254;6.702;2023-09-19T13:04:58;22.80;98.20
9951;DHT22;24074;49.254;6.702;2023-09-19T13:07:44;22.90;98.80
9951;DHT22;24074;49.254;6.702;2023-09-19T13:10:12;23.10;98.30
9951;DHT22;24074;49.254;6.702;2023-09-19T13:12:41;23.30;97.30
9951;DHT22;24074;49.254;6.702;2023-09-19T13:15:10;23.10;97.20
9951;DHT22;24074;49.254;6.702;2023-09-19T13:17:46;23.00;97.70
9951;DHT22;24074;49.254;6.702;2023-09-19T13:20:25;23.00;98.40
9951;DHT22;24074;49.254;6.702;2023-09-19T13:22:55;23.00;98.40
9951;DHT22;24074;49.254;6.702;2023-09-19T13:25:25;22.70;98.10
9951;DHT22;24074;49.254;6.702;2023-09-19T13:27:54;22.90;99.00
9951;DHT22;24074;49.254;6.702;2023-09-19T13:30:23;22.90;98.70
9951;DHT22;24074;49.254;6.702;2023-09-19T13:32:50;23.00;99.60
9951;DHT22;24074;49.254;6.702;2023-09-19T13:35:16;23.00;99.90
9951;DHT22;24074;49.254;6.702;2023-09-19T13:37:42;22.90;99.90
9951;DHT22;24074;49.254;6.702;2023-09-19T13:40:09;22.80;99.90
9951;DHT22;24074;49.254;6.702;2023-09-19T13:42:35;22.90;99.90
9951;DHT22;24074;49.254;6.702;2023-09-19T13:45:02;22.90;99.90
9951;DHT22;24074;49.254;6.702;2023-09-19T13:47:30;22.80;99.90
9951;DHT22;24074;49.254;6.702;2023-09-19T13:49:55;22.90;99.90
9951;DHT22;24074;49.254;6.702;2023-09-19T13:52:21;23.10;99.90
9951;DHT22;24074;49.254;6.702;2023-09-19T13:54:52;23.00;98.20
9951;DHT22;24074;49.254;6.702;2023-09-19T13:57:18;22.90;99.90
9951;DHT22;24074;49.254;6.702;2023-09-19T13:59:44;22.80;99.90
9951;DHT22;24074;49.254;6.702;2023-09-19T14:02:09;22.80;99.90
9951;DHT22;24074;49.254;6.702;2023-09-19T14:04:35;23.20;99.40
9951;DHT22;24074;49.254;6.702;2023-09-19T14:07:01;23.30;99.90
9951;DHT22;24074;49.254;6.702;2023-09-19T14:09:27;23.30;99.90
9951;DHT22;24074;49.254;6.702;2023-09-19T14:11:53;23.60;98.20
9951;DHT22;24074;49.254;6.702;2023-09-19T14:14:21;23.70;96.60
9951;DHT22;24074;49.254;6.702;2023-09-19T14:16:47;23.40;96.10
9951;DHT22;24074;49.254;6.702;2023-09-19T14:19:13;23.00;97.40
9951;DHT22;24074;49.254;6.702;2023-09-19T14:21:42;22.90;98.50
9951;DHT22;24074;49.254;6.702;2023-09-19T14:24:13;22.70;99.70
9951;DHT22;24074;49.254;6.702;2023-09-19T14:26:41;22.70;99.70
9951;DHT22;24074;49.254;6.702;2023-09-19T14:29:07;22.70;99.90
9951;DHT22;24074;49.254;6.702;2023-09-19T14:31:37;22.70;99.20
9951;DHT22;24074;49.254;6.702;2023-09-19T14:34:05;22.80;99.30
9951;DHT22;24074;49.254;6.702;2023-09-19T14:36:31;23.10;99.90
9951;DHT22;24074;49.254;6.702;2023-09-19T14:38:56;23.30;99.00
9951;DHT22;24074;49.254;6.702;2023-09-19T14:41:22;22.80;97.60
9951;DHT22;24074;49.254;6.702;2023-09-19T14:43:53;22.50;99.90
9951;DHT22;24074;49.254;6.702;2023-09-19T14:46:20;22.60;99.90
9951;DHT22;24074;49.254;6.702;2023-09-19T14:48:46;22.40;99.90
9951;DHT22;24074;49.254;6.702;2023-09-19T14:51:12;22.30;99.90
9951;DHT22;24074;49.254;6.702;2023-09-19T14:53:39;22.50;99.90
9951;DHT22;24074;49.254;6.702;2023-09-19T14:56:07;22.70;99.90
9951;DHT22;24074;49.254;6.702;2023-09-19T14:58:33;22.80;99.90
9951;DHT22;24074;49.254;6.702;2023-09-19T15:01:06;22.80;99.90
9951;DHT22;24074;49.254;6.702;2023-09-19T15:03:32;22.60;99.70
9951;DHT22;24074;49.254;6.702;2023-09-19T15:06:00;22.50;99.90
9951;DHT22;24074;49.254;6.702;2023-09-19T15:08:25;22.50;99.90
9951;DHT22;24074;49.254;6.702;2023-09-19T15:10:51;22.60;99.90
9951;DHT22;24074;49.254;6.702;2023-09-19T15:13:18;22.80;99.90
9951;DHT22;24074;49.254;6.702;2023-09-19T15:15:44;22.60;99.90
9951;DHT22;24074;49.254;6.702;2023-09-19T15:18:12;22.50;99.90
9951;DHT22;24074;49.254;6.702;2023-09-19T15:20:45;21.90;99.90
9951;DHT22;24074;49.254;6.702;2023-09-19T15:23:11;21.90;99.90
9951;DHT22;24074;49.254;6.702;2023-09-19T15:25:38;22.00;99.90
9951;DHT22;24074;49.254;6.702;2023-09-19T15:28:05;22.20;99.90
9951;DHT22;24074;49.254;6.702;2023-09-19T15:30:39;22.20;99.90
9951;DHT22;24074;49.254;6.702;2023-09-19T15:33:07;21.90;99.90
9951;DHT22;24074;49.254;6.702;2023-09-19T15:35:33;21.90;99.90
9951;DHT22;24074;49.254;6.702;2023-09-19T15:38:02;21.90;99.90
9951;DHT22;24074;49.254;6.702;2023-09-19T15:40:28;21.80;99.90
9951;DHT22;24074;49.254;6.702;2023-09-19T15:42:54;21.60;99.90
9951;DHT22;24074;49.254;6.702;2023-09-19T15:45:22;21.30;99.90
9951;DHT22;24074;49.254;6.702;2023-09-19T15:47:48;21.40;99.90
9951;DHT22;24074;49.254;6.702;2023-09-19T15:50:14;21.30;99.90
9951;DHT22;24074;49.254;6.702;2023-09-19T15:52:40;21.30;99.90
9951;DHT22;24074;49.254;6.702;2023-09-19T15:55:06;21.30;99.90
9951;DHT22;24074;49.254;6.702;2023-09-19T15:57:33;21.40;99.90
9951;DHT22;24074;49.254;6.702;2023-09-19T15:59:59;21.50;99.90
9951;DHT22;24074;49.254;6.702;2023-09-19T16:02:25;21.30;99.90
9951;DHT22;24074;49.254;6.702;2023-09-19T16:04:54;21.20;99.90
9951;DHT22;24074;49.254;6.702;2023-09-19T16:07:19;21.40;99.90
9951;DHT22;24074;49.254;6.702;2023-09-19T16:09:45;21.60;99.90
9951;DHT22;24074;49.254;6.702;2023-09-19T16:12:10;21.60;99.90
9951;DHT22;24074;49.254;6.702;2023-09-19T16:14:36;21.70;99.90
9951;DHT22;24074;49.254;6.702;2023-09-19T16:17:03;21.50;99.90
9951;DHT22;24074;49.254;6.702;2023-09-19T16:19:29;21.30;99.90
9951;DHT22;24074;49.254;6.702;2023-09-19T16:21:54;21.10;99.90
9951;DHT22;24074;49.254;6.702;2023-09-19T16:24:21;20.90;99.90
9951;DHT22;24074;49.254;6.702;2023-09-19T16:26:47;20.70;99.90
9951;DHT22;24074;49.254;6.702;2023-09-19T16:29:14;20.50;99.90
9951;DHT22;24074;49.254;6.702;2023-09-19T16:31:40;20.50;99.90
9951;DHT22;24074;49.254;6.702;2023-09-19T16:34:06;20.30;99.90
9951;DHT22;24074;49.254;6.702;2023-09-19T16:36:32;20.30;99.90
9951;DHT22;24074;49.254;6.702;2023-09-19T16:38:58;20.20;99.90
9951;DHT22;24074;49.254;6.702;2023-09-19T16:41:24;20.20;99.90
9951;DHT22;24074;49.254;6.702;2023-09-19T16:43:51;20.20;99.90
9951;DHT22;24074;49.254;6.702;2023-09-19T16:46:19;20.20;99.90
9951;DHT22;24074;49.254;6.702;2023-09-19T16:48:47;20.10;99.90
9951;DHT22;24074;49.254;6.702;2023-09-19T16:51:13;20.10;99.90